Time;durP1;ratioP1;P1;durP2;ratioP2;P2;SDS_P1;SDS_P2;PMS_P1;PMS_P2;Temp;Humidity;BMP_temperature;BMP_pressure;BME280_temperature;BME280_humidity;BME280_pressure;Samples;Min_cycle;Max_cycle;Signal;HPM_P1;HPM_P2
2024/01/02 00:02:21;;;;;;;5.72;3.15;;;;;;;0.21;75.04;92468.75;2058595;69;20584;-84
2024/01/02 00:04:48;;;;;;;6.22;3.17;;;;;;;0.24;74.39;92462.13;2061622;69;20200;-81
2024/01/02 00:07:14;;;;;;;6.90;3.00;;;;;;;0.34;73.83;92458.81;2057962;69;20137;-81
2024/01/02 00:09:41;;;;;;;5.32;2.55;;;;;;;0.07;74.02;92456.34;2061299;69;20604;-83
2024/01/02 00:12:07;;;;;;;6.20;2.65;;;;;;;0.11;74.76;92453.97;2061177;69;20243;-82
2024/01/02 00:14:33;;;;;;;4.88;2.60;;;;;;;0.22;74.95;92452.88;2058324;69;20654;-82
2024/01/02 00:17:01;;;;;;;4.82;2.38;;;;;;;0.36;73.92;92442.38;2061559;69;20153;-83
2024/01/02 00:19:26;;;;;;;5.93;2.50;;;;;;;0.39;73.32;92442.03;2061459;69;20199;-84
2024/01/02 00:21:52;;;;;;;5.32;2.50;;;;;;;0.28;73.33;92425.78;2061327;69;20594;-87
2024/01/02 00:24:18;;;;;;;5.22;2.17;;;;;;;0.28;73.71;92430.56;2061662;69;20165;-88
2024/01/02 00:26:44;;;;;;;5.75;2.72;;;;;;;0.13;73.94;92431.25;2061328;69;20149;-87
2024/01/02 00:29:10;;;;;;;7.07;2.13;;;;;;;0.14;73.89;92419.66;2058325;69;20243;-87
2024/01/02 00:31:35;;;;;;;4.63;1.90;;;;;;;0.18;74.20;92424.81;2061524;69;20177;-85
2024/01/02 00:34:01;;;;;;;3.42;1.83;;;;;;;0.16;74.30;92425.38;2060926;69;20628;-87
2024/01/02 00:36:27;;;;;;;3.42;1.80;;;;;;;0.18;73.85;92422.03;2061166;69;20157;-87
2024/01/02 00:38:53;;;;;;;2.65;1.77;;;;;;;0.09;73.66;92409.50;2061538;69;20153;-88
2024/01/02 00:41:19;;;;;;;3.05;1.00;;;;;;;0.24;72.19;92408.78;2061393;69;20145;-88
2024/01/02 00:43:45;;;;;;;4.18;2.10;;;;;;;0.19;73.32;92404.91;2058527;69;20154;-87
2024/01/02 00:46:10;;;;;;;6.35;2.53;;;;;;;0.08;74.53;92413.53;2062012;69;20160;-84
2024/01/02 00:48:39;;;;;;;4.68;2.20;;;;;;;0.10;73.98;92416.50;2058648;69;20153;-83
2024/01/02 00:51:04;;;;;;;3.47;2.05;;;;;;;0.06;73.77;92429.22;2057986;69;20149;-83
2024/01/02 00:53:31;;;;;;;7.35;2.33;;;;;;;0.09;73.58;92409.50;2055070;69;20154;-87
2024/01/02 00:55:57;;;;;;;4.25;1.90;;;;;;;0.13;73.22;92426.47;2056944;69;20165;-87
2024/01/02 00:58:22;;;;;;;3.35;2.00;;;;;;;-0.03;74.62;92417.38;2058738;69;20144;-90
2024/01/02 01:00:48;;;;;;;3.65;1.80;;;;;;;0.09;74.20;92417.03;2062320;69;20148;-89
2024/01/02 01:03:14;;;;;;;4.20;1.70;;;;;;;0.18;73.33;92408.97;2062339;69;20154;-86
2024/01/02 01:05:39;;;;;;;7.38;1.90;;;;;;;0.03;73.52;92413.72;2062273;69;20223;-89
2024/01/02 01:08:05;;;;;;;4.70;2.20;;;;;;;-0.09;74.33;92396.69;2062336;69;20152;-87
2024/01/02 01:10:31;;;;;;;3.22;1.95;;;;;;;0.06;74.19;92407.81;2061416;69;20153;-84
2024/01/02 01:12:56;;;;;;;4.35;2.38;;;;;;;0.11;73.55;92403.41;2058431;69;20177;-89
2024/01/02 01:15:22;;;;;;;5.07;2.40;;;;;;;0.10;73.19;92385.31;2062357;69;20144;-84
2024/01/02 01:17:48;;;;;;;6.68;2.38;;;;;;;0.07;73.14;92378.84;2059001;69;20142;-86
2024/01/02 01:20:16;;;;;;;4.38;2.15;;;;;;;0.05;73.07;92372.41;2062204;69;20141;-84
2024/01/02 01:22:42;;;;;;;3.80;1.90;;;;;;;-0.04;73.13;92366.09;2062217;69;20145;-84
2024/01/02 01:25:07;;;;;;;3.55;1.45;;;;;;;0.06;73.35;92369.06;2062144;69;20189;-82
2024/01/02 01:27:33;;;;;;;3.08;1.50;;;;;;;-0.01;73.27;92353.91;2056231;69;20133;-91
2024/01/02 01:29:59;;;;;;;6.07;2.58;;;;;;;-0.15;74.19;92369.19;2063279;69;20145;-84
2024/01/02 01:32:28;;;;;;;5.57;2.33;;;;;;;-0.05;73.71;92386.75;2058208;69;20151;-90
2024/01/02 01:34:54;;;;;;;7.70;2.20;;;;;;;-0.04;73.21;92379.19;2058865;69;20255;-88
2024/01/02 01:37:19;;;;;;;4.18;2.05;;;;;;;-0.16;73.13;92375.28;2058098;69;20618;-88
2024/01/02 01:39:46;;;;;;;5.10;2.38;;;;;;;-0.55;74.21;92368.88;2059507;69;20197;-87
2024/01/02 01:42:11;;;;;;;4.22;1.90;;;;;;;-0.31;74.54;92368.44;2061776;69;20233;-87
2024/01/02 01:44:41;;;;;;;4.40;1.65;;;;;;;-0.13;73.78;92369.41;2058477;69;20209;-88
2024/01/02 01:47:08;;;;;;;5.00;2.15;;;;;;;-0.28;73.30;92355.50;2061617;69;20559;-88
2024/01/02 01:49:39;;;;;;;4.30;1.90;;;;;;;-0.42;74.41;92354.19;2058020;69;20145;-91
2024/01/02 01:52:08;;;;;;;4.80;2.00;;;;;;;-0.31;73.80;92354.59;2061644;69;20177;-86
2024/01/02 01:54:39;;;;;;;3.25;1.60;;;;;;;-0.34;73.52;92352.91;2062145;69;20465;-91
2024/01/02 01:57:10;;;;;;;2.38;1.60;;;;;;;-0.34;73.47;92352.19;2059027;69;20553;-91
2024/01/02 01:59:44;;;;;;;3.08;1.80;;;;;;;-0.18;72.71;92353.72;2059137;69;20292;-90
2024/01/02 02:02:11;;;;;;;3.80;1.85;;;;;;;-0.25;72.95;92362.72;2062597;69;20133;-84
2024/01/02 02:04:44;;;;;;;4.35;1.75;;;;;;;-0.27;72.81;92354.25;2062277;69;20173;-88
2024/01/02 02:07:11;;;;;;;2.72;1.50;;;;;;;-0.29;72.63;92352.00;2058448;69;20215;-91
2024/01/02 02:09:38;;;;;;;4.13;1.45;;;;;;;-0.52;73.04;92349.16;2053540;69;20620;-92
2024/01/02 02:12:05;;;;;;;2.80;1.77;;;;;;;-0.71;73.60;92348.72;2059771;69;20213;-91
2024/01/02 02:14:32;;;;;;;2.90;1.70;;;;;;;-0.42;73.94;92356.94;2062527;69;20153;-91
2024/01/02 02:17:01;;;;;;;4.13;1.80;;;;;;;-0.36;73.35;92347.22;2062397;69;20153;-91
2024/01/02 02:19:28;;;;;;;2.72;1.45;;;;;;;-0.26;73.01;92341.88;2061070;69;20196;-93
2024/01/02 02:21:55;;;;;;;3.53;1.70;;;;;;;-0.27;73.63;92338.38;2059001;69;20153;-90
2024/01/02 02:24:23;;;;;;;4.97;1.85;;;;;;;-0.18;73.38;92339.88;2056006;69;20142;-92
2024/01/02 02:26:49;;;;;;;3.35;1.58;;;;;;;-0.16;73.26;92337.28;2065653;69;20608;-85
2024/01/02 02:29:16;;;;;;;2.97;1.40;;;;;;;-0.10;72.51;92332.31;2064337;69;20193;-85
2024/01/02 02:31:41;;;;;;;2.95;1.20;;;;;;;-0.12;72.78;92343.19;2067865;69;20151;-91
2024/01/02 02:34:15;;;;;;;2.40;1.10;;;;;;;-0.25;73.01;92340.59;2063182;69;20529;-89
2024/01/02 02:36:42;;;;;;;4.35;1.35;;;;;;;-0.14;72.84;92331.94;2064129;69;20181;-87
2024/01/02 02:39:09;;;;;;;2.25;1.40;;;;;;;-0.08;72.69;92342.84;2066335;69;20216;-84
2024/01/02 02:41:38;;;;;;;3.80;1.75;;;;;;;-0.43;74.44;92323.03;2067326;69;20215;-82
2024/01/02 02:44:05;;;;;;;3.92;1.45;;;;;;;-0.17;73.42;92329.56;2067738;69;20196;-87
2024/01/02 02:46:30;;;;;;;5.03;1.73;;;;;;;-0.32;72.92;92316.41;2070509;69;20105;-86
2024/01/02 02:48:56;;;;;;;3.67;1.70;;;;;;;-0.19;73.34;92313.47;2069748;69;20177;-86
2024/01/02 02:51:23;;;;;;;1.90;1.25;;;;;;;-0.15;72.71;92305.56;2063883;69;20169;-90
2024/01/02 02:53:48;;;;;;;2.53;1.40;;;;;;;-0.11;72.49;92303.16;2063926;69;20153;-82
2024/01/02 02:56:17;;;;;;;2.92;1.48;;;;;;;-0.31;72.23;92268.84;2061116;69;20138;-83
2024/01/02 02:58:43;;;;;;;1.52;1.13;;;;;;;-0.02;72.10;92291.56;2060649;69;20165;-81
2024/01/02 03:01:22;;;;;;;2.33;1.50;;;;;;;-0.36;72.92;92296.69;2060659;69;20146;-83
2024/01/02 03:03:47;;;;;;;3.90;1.65;;;;;;;-0.43;73.59;92294.63;2057881;69;20242;-89
2024/01/02 03:06:13;;;;;;;2.35;1.27;;;;;;;-0.15;73.08;92294.50;2060028;69;20759;-90
2024/01/02 03:08:38;;;;;;;4.55;1.65;;;;;;;-0.07;72.63;92294.50;2056921;69;20158;-82
2024/01/02 03:11:39;;;;;;;4.68;1.73;;;;;;;-0.08;73.18;92302.06;2059029;69;20141;-92
2024/01/02 03:14:06;;;;;;;2.58;1.55;;;;;;;-0.28;72.98;92281.56;2056340;69;20149;-92
2024/01/02 03:16:34;;;;;;;3.17;1.70;;;;;;;-0.11;73.19;92283.06;2056575;69;20169;-93
2024/01/02 03:18:59;;;;;;;1.73;1.33;;;;;;;-0.09;73.08;92274.94;2056784;69;20150;-91
2024/01/02 03:21:28;;;;;;;2.65;1.45;;;;;;;-0.02;72.64;92266.66;2060813;69;20161;-90
2024/01/02 03:23:56;;;;;;;3.03;1.60;;;;;;;-0.07;72.13;92275.13;2057415;69;20134;-91
2024/01/02 03:26:25;;;;;;;3.60;1.48;;;;;;;-0.07;72.02;92264.06;2056445;69;20272;-93
2024/01/02 03:28:50;;;;;;;1.90;1.33;;;;;;;-0.04;72.01;92265.75;2058458;69;20574;-90
2024/01/02 03:31:16;;;;;;;3.00;1.20;;;;;;;-0.02;72.73;92271.44;2057172;69;20142;-86
2024/01/02 03:33:42;;;;;;;2.08;1.10;;;;;;;-0.06;72.25;92257.97;2057045;69;20149;-91
2024/01/02 03:36:12;;;;;;;1.83;1.10;;;;;;;-0.01;71.99;92262.59;2057859;69;20146;-91
2024/01/02 03:38:39;;;;;;;1.30;1.15;;;;;;;-0.08;72.26;92268.13;2058425;69;20249;-90
2024/01/02 03:41:06;;;;;;;2.63;0.95;;;;;;;-0.08;71.94;92262.59;2058509;69;20153;-91
2024/01/02 03:43:41;;;;;;;1.58;0.93;;;;;;;-0.24;73.28;92263.88;2057700;69;20589;-89
2024/01/02 03:46:15;;;;;;;3.60;1.42;;;;;;;-0.30;73.25;92261.28;2058174;69;20180;-91
2024/01/02 03:48:43;;;;;;;1.20;1.02;;;;;;;-0.16;72.77;92250.78;2057755;69;20129;-92
2024/01/02 03:51:11;;;;;;;1.80;1.20;;;;;;;-0.17;72.44;92244.50;2057296;69;20651;-90
2024/01/02 03:53:37;;;;;;;3.78;1.30;;;;;;;-0.11;72.04;92253.38;2051880;69;20536;-88
2024/01/02 03:56:04;;;;;;;2.20;1.25;;;;;;;-0.16;71.87;92259.81;2054481;69;20593;-89
2024/01/02 03:58:32;;;;;;;1.60;1.00;;;;;;;-0.31;72.77;92266.09;2055017;69;20146;-90
2024/01/02 04:00:58;;;;;;;4.93;1.33;;;;;;;-0.23;72.88;92257.03;2054401;70;20148;-90
2024/01/02 04:03:24;;;;;;;2.80;1.30;;;;;;;-0.15;72.74;92249.50;2055713;69;20162;-89
2024/01/02 04:05:50;;;;;;;2.33;1.38;;;;;;;-0.47;73.61;92245.22;2055618;69;20149;-84
2024/01/02 04:08:16;;;;;;;3.63;2.00;;;;;;;-0.29;73.53;92252.41;2051324;70;20217;-83
2024/01/02 04:10:43;;;;;;;3.80;1.83;;;;;;;-0.28;73.37;92242.09;2055037;70;20150;-90
2024/01/02 04:13:12;;;;;;;5.60;2.33;;;;;;;-0.30;73.63;92234.34;2055510;70;20150;-87
2024/01/02 04:15:38;;;;;;;3.53;2.00;;;;;;;-0.17;73.23;92224.41;2054417;69;20605;-83
2024/01/02 04:18:04;;;;;;;4.28;1.98;;;;;;;-0.06;72.73;92235.09;2056984;69;20185;-91
2024/01/02 04:20:31;;;;;;;4.13;1.60;;;;;;;-0.07;72.78;92231.59;2054872;70;20192;-84
2024/01/02 04:22:57;;;;;;;3.85;1.38;;;;;;;-0.11;72.39;92225.69;2054781;70;20186;-89
2024/01/02 04:25:24;;;;;;;1.98;1.20;;;;;;;-0.17;71.41;92230.69;2054585;69;20533;-89
2024/01/02 04:27:54;;;;;;;1.38;0.60;;;;;;;0.01;70.08;92230.88;2053951;69;20184;-91
2024/01/02 04:30:20;;;;;;;2.78;0.70;;;;;;;-0.03;68.58;92214.63;2054581;69;20142;-91
2024/01/02 04:32:46;;;;;;;1.10;0.70;;;;;;;0.21;69.15;92213.31;2055940;69;20157;-90
2024/01/02 04:35:12;;;;;;;1.25;0.68;;;;;;;0.15;69.63;92223.84;2053129;70;20138;-91
2024/01/02 04:37:38;;;;;;;0.98;0.68;;;;;;;0.25;69.47;92233.81;2054534;70;20166;-85
2024/01/02 04:40:05;;;;;;;0.50;0.50;;;;;;;0.31;69.33;92228.06;2054773;70;20259;-86
2024/01/02 04:42:35;;;;;;;2.22;0.90;;;;;;;0.33;69.13;92219.22;2054991;69;20138;-89
2024/01/02 04:45:05;;;;;;;1.45;0.90;;;;;;;0.39;69.58;92220.50;2055892;69;20142;-83
2024/01/02 04:47:31;;;;;;;3.35;1.13;;;;;;;0.31;69.70;92217.00;2055932;70;20233;-84
2024/01/02 04:49:57;;;;;;;5.53;2.80;;;;;;;0.35;69.53;92197.97;2055098;69;20229;-90
2024/01/02 04:52:23;;;;;;;1.65;1.27;;;;;;;0.34;69.11;92196.50;2055754;69;20514;-87
2024/01/02 04:54:49;;;;;;;2.72;1.20;;;;;;;0.45;69.22;92195.34;2060952;69;20162;-83
2024/01/02 04:57:15;;;;;;;2.10;1.20;;;;;;;0.16;70.50;92198.38;2061363;69;20245;-90
2024/01/02 04:59:41;;;;;;;1.63;1.10;;;;;;;0.37;70.01;92197.44;2062098;69;20142;-90
2024/01/02 05:02:06;;;;;;;2.67;0.90;;;;;;;0.51;69.21;92201.47;2056435;69;20169;-90
2024/01/02 05:04:33;;;;;;;0.63;0.63;;;;;;;0.57;69.07;92204.03;2061458;69;20157;-85
2024/01/02 05:06:59;;;;;;;0.63;0.60;;;;;;;0.39;67.63;92192.78;2061371;69;20149;-85
2024/01/02 05:09:27;;;;;;;0.88;0.70;;;;;;;0.04;67.20;92193.78;2061176;69;20259;-86
2024/01/02 05:11:53;;;;;;;1.00;0.60;;;;;;;0.14;66.80;92178.84;2060829;69;20233;-91
2024/01/02 05:14:19;;;;;;;1.23;0.80;;;;;;;0.45;66.68;92176.72;2061082;69;20169;-87
2024/01/02 05:16:44;;;;;;;2.03;1.30;;;;;;;0.41;66.73;92173.59;2057688;69;20141;-88
2024/01/02 05:19:10;;;;;;;2.70;1.30;;;;;;;0.68;67.30;92178.66;2061118;69;20157;-83
2024/01/02 05:21:39;;;;;;;2.83;2.05;;;;;;;0.55;67.32;92176.13;2062225;69;20236;-88
2024/01/02 05:24:07;;;;;;;2.83;1.92;;;;;;;0.68;67.14;92170.38;2057753;69;20525;-90
2024/01/02 05:26:33;;;;;;;14.05;5.88;;;;;;;0.75;66.94;92164.06;2061556;69;20161;-91
2024/01/02 05:28:58;;;;;;;9.25;4.85;;;;;;;0.73;67.34;92175.72;2062004;69;20169;-87
2024/01/02 05:31:30;;;;;;;4.43;3.17;;;;;;;0.76;67.74;92182.16;2058301;69;20180;-91
2024/01/02 05:33:55;;;;;;;5.03;2.40;;;;;;;0.71;67.96;92166.47;2062290;69;20142;-85
2024/01/02 05:36:21;;;;;;;2.85;1.98;;;;;;;0.80;68.02;92167.94;2060077;69;20176;-90
2024/01/02 05:38:46;;;;;;;3.42;2.25;;;;;;;0.71;68.08;92161.69;2060030;69;20150;-87
2024/01/02 05:41:12;;;;;;;3.90;2.00;;;;;;;0.66;68.46;92153.56;2059309;69;20519;-91
2024/01/02 05:43:38;;;;;;;4.47;1.70;;;;;;;0.50;68.98;92164.72;2060465;69;20173;-87
2024/01/02 05:46:03;;;;;;;3.33;1.60;;;;;;;0.69;68.73;92152.47;2061666;69;20137;-84
2024/01/02 05:48:30;;;;;;;9.98;5.53;;;;;;;0.64;69.06;92156.16;2058697;69;20601;-90
2024/01/02 05:50:57;;;;;;;6.28;3.40;;;;;;;0.81;68.51;92153.50;2062311;69;20156;-87
2024/01/02 05:53:23;;;;;;;6.28;3.25;;;;;;;0.78;68.54;92157.41;2063783;69;20180;-83
2024/01/02 05:55:48;;;;;;;5.78;3.28;;;;;;;0.80;68.68;92162.38;2062181;69;20256;-82
2024/01/02 05:58:14;;;;;;;5.22;2.83;;;;;;;0.83;68.58;92156.47;2062705;69;20157;-91
2024/01/02 06:00:40;;;;;;;8.18;3.95;;;;;;;0.84;68.83;92149.63;2063183;69;20149;-91
2024/01/02 06:03:06;;;;;;;19.98;8.32;;;;;;;0.76;68.97;92154.44;2059096;69;20568;-87
2024/01/02 06:05:33;;;;;;;10.38;4.90;;;;;;;0.74;69.34;92138.41;2061914;69;20157;-86
2024/01/02 06:07:58;;;;;;;9.43;5.90;;;;;;;0.84;68.93;92130.22;2062821;69;20229;-82
2024/01/02 06:10:24;;;;;;;10.15;5.60;;;;;;;0.74;69.66;92132.13;2067362;69;20114;-87
2024/01/02 06:12:50;;;;;;;13.80;6.45;;;;;;;0.62;69.83;92131.78;2068099;69;20696;-82
2024/01/02 06:15:16;;;;;;;4.47;2.88;;;;;;;0.69;68.30;92131.03;2064811;69;20184;-84
2024/01/02 06:17:43;;;;;;;6.35;2.20;;;;;;;0.89;68.50;92134.06;2065020;69;20169;-84
2024/01/02 06:20:10;;;;;;;3.58;2.35;;;;;;;0.84;68.21;92130.22;2065642;69;20215;-82
2024/01/02 06:22:37;;;;;;;5.60;3.10;;;;;;;0.80;68.21;92124.31;2063972;69;20173;-91
2024/01/02 06:25:08;;;;;;;4.90;2.85;;;;;;;0.81;67.79;92119.53;2065729;69;20256;-84
2024/01/02 06:27:34;;;;;;;2.40;1.88;;;;;;;0.86;67.86;92119.31;2068197;69;20157;-83
2024/01/02 06:30:17;;;;;;;4.38;1.08;;;;;;;0.87;67.84;92126.34;2066233;69;20157;-84
2024/01/02 06:32:42;;;;;;;2.00;0.98;;;;;;;0.85;67.88;92122.66;2063101;69;20220;-91
2024/01/02 06:35:09;;;;;;;2.03;1.05;;;;;;;0.87;68.16;92120.78;2055798;69;20165;-88
2024/01/02 06:37:36;;;;;;;3.97;1.20;;;;;;;0.89;67.79;92109.88;2062824;69;20699;-89
2024/01/02 06:40:20;;;;;;;2.28;1.50;;;;;;;0.98;67.69;92117.59;2062306;69;21553;-87
2024/01/02 06:42:49;;;;;;;4.75;2.25;;;;;;;0.92;67.29;92130.19;2060225;69;20165;-87
2024/01/02 06:45:14;;;;;;;7.40;3.20;;;;;;;0.79;68.15;92106.22;2062227;69;20616;-84
2024/01/02 06:47:40;;;;;;;5.97;3.50;;;;;;;0.93;67.30;92107.44;2063350;69;20165;-88
2024/01/02 06:50:07;;;;;;;7.53;3.53;;;;;;;0.80;66.95;92095.88;2062906;69;20164;-90
2024/01/02 06:52:32;;;;;;;8.07;3.83;;;;;;;0.87;67.71;92103.41;2061197;69;20226;-89
2024/01/02 06:54:58;;;;;;;9.77;3.78;;;;;;;0.93;67.57;92090.81;2062240;69;20552;-86
2024/01/02 06:57:23;;;;;;;9.02;4.97;;;;;;;0.91;67.84;92098.22;2060680;69;20149;-92
2024/01/02 06:59:49;;;;;;;7.97;4.03;;;;;;;0.97;67.61;92087.66;2065445;69;20149;-89
2024/01/02 07:02:15;;;;;;;5.10;2.50;;;;;;;0.90;68.01;92091.19;2064293;69;20152;-90
2024/01/02 07:04:40;;;;;;;4.53;1.50;;;;;;;0.76;66.38;92083.16;2064964;69;20176;-89
2024/01/02 07:07:06;;;;;;;5.05;2.03;;;;;;;0.83;65.95;92076.09;2065931;69;20269;-88
2024/01/02 07:09:32;;;;;;;5.13;2.90;;;;;;;0.80;65.92;92057.09;2062783;69;20148;-91
2024/01/02 07:11:58;;;;;;;2.42;1.70;;;;;;;0.90;65.56;92052.41;2064457;69;20192;-82
2024/01/02 07:14:23;;;;;;;4.45;1.15;;;;;;;0.87;66.00;92054.28;2067788;69;20157;-83
2024/01/02 07:16:49;;;;;;;3.42;1.15;;;;;;;0.95;66.39;92048.69;2063692;69;20151;-84
2024/01/02 07:19:16;;;;;;;2.72;1.45;;;;;;;0.93;65.94;92049.25;2059173;69;20197;-80
2024/01/02 07:21:41;;;;;;;2.38;1.35;;;;;;;0.88;65.62;92047.44;2063329;69;20246;-80
2024/01/02 07:24:07;;;;;;;2.10;1.40;;;;;;;0.86;66.44;92032.66;2065218;69;20237;-82
2024/01/02 07:26:33;;;;;;;3.15;1.60;;;;;;;0.97;65.77;92041.28;2063203;69;20183;-82
2024/01/02 07:28:58;;;;;;;2.20;1.23;;;;;;;1.04;64.26;92036.25;2064595;69;20197;-81
2024/01/02 07:31:24;;;;;;;2.50;1.40;;;;;;;1.09;65.07;92044.31;2065333;69;20512;-82
2024/01/02 07:33:49;;;;;;;3.03;1.73;;;;;;;1.14;65.11;92051.69;2065505;69;20145;-83
2024/01/02 07:36:17;;;;;;;3.35;1.70;;;;;;;1.29;65.28;92052.88;2063041;69;20134;-81
2024/01/02 07:38:43;;;;;;;2.47;1.20;;;;;;;1.32;64.53;92049.69;2061247;69;20235;-84
2024/01/02 07:41:08;;;;;;;4.15;1.48;;;;;;;1.49;64.99;92052.53;2064942;69;20185;-81
2024/01/02 07:43:34;;;;;;;3.58;2.00;;;;;;;1.62;64.08;92051.50;2065325;69;20141;-82
2024/01/02 07:45:59;;;;;;;3.50;1.92;;;;;;;1.55;64.84;92054.31;2061822;69;20293;-81
2024/01/02 07:48:26;;;;;;;4.00;2.17;;;;;;;1.58;65.44;92045.59;2061562;69;20157;-82
2024/01/02 07:50:51;;;;;;;3.30;2.13;;;;;;;1.51;65.57;92040.84;2055516;69;20502;-81
2024/01/02 07:53:20;;;;;;;6.28;2.45;;;;;;;1.58;65.86;92037.28;2061619;69;20615;-81
2024/01/02 07:55:48;;;;;;;22.13;11.50;;;;;;;1.30;65.74;92035.69;2057941;69;20149;-83
2024/01/02 07:58:14;;;;;;;10.63;4.80;;;;;;;1.40;66.10;92038.56;2061754;69;20138;-84
2024/01/02 08:00:40;;;;;;;10.82;5.20;;;;;;;1.45;66.79;92037.56;2061765;69;20176;-81
2024/01/02 08:03:06;;;;;;;8.73;4.85;;;;;;;1.55;66.45;92015.47;2061514;69;20621;-80
2024/01/02 08:05:34;;;;;;;8.10;4.47;;;;;;;1.84;65.97;92007.44;2061201;69;20180;-83
2024/01/02 08:08:00;;;;;;;7.40;4.10;;;;;;;1.89;65.21;92004.41;2061545;69;20153;-81
2024/01/02 08:10:26;;;;;;;7.10;3.65;;;;;;;1.97;65.66;91985.66;2061726;69;20145;-81
2024/01/02 08:12:53;;;;;;;6.68;3.70;;;;;;;1.86;65.29;91999.28;2058315;69;20160;-82
2024/01/02 08:15:18;;;;;;;9.63;4.45;;;;;;;1.30;67.27;92012.75;2057921;69;20164;-84
2024/01/02 08:17:44;;;;;;;6.45;3.70;;;;;;;1.71;66.77;92020.31;2061529;69;20597;-84
2024/01/02 08:20:10;;;;;;;11.35;3.22;;;;;;;1.82;66.52;91999.66;2061504;69;20149;-82
2024/01/02 08:22:36;;;;;;;8.02;3.70;;;;;;;2.00;66.24;91992.81;2061726;69;20639;-81
2024/01/02 08:25:02;;;;;;;10.02;3.63;;;;;;;1.68;65.28;92002.03;2061326;69;20149;-82
2024/01/02 08:27:27;;;;;;;6.13;3.67;;;;;;;1.98;66.28;91995.44;2061533;69;20261;-81
2024/01/02 08:29:54;;;;;;;7.60;4.32;;;;;;;1.92;65.98;91994.19;2061532;69;20160;-83
2024/01/02 08:32:20;;;;;;;12.85;3.83;;;;;;;2.11;65.91;91996.38;2061483;69;20156;-83
2024/01/02 08:34:46;;;;;;;8.90;4.15;;;;;;;2.29;65.24;91995.06;2061276;69;20169;-84
2024/01/02 08:37:11;;;;;;;9.07;4.65;;;;;;;2.22;65.38;92002.19;2061559;69;20144;-83
2024/01/02 08:39:37;;;;;;;7.43;4.18;;;;;;;2.34;65.46;91985.75;2061440;69;20185;-85
2024/01/02 08:42:02;;;;;;;9.43;5.55;;;;;;;2.51;65.31;92001.63;2057541;69;20245;-80
2024/01/02 08:44:29;;;;;;;12.73;7.28;;;;;;;2.29;66.50;91998.59;2058154;69;20169;-81
2024/01/02 08:46:55;;;;;;;15.40;7.28;;;;;;;2.55;65.33;91997.13;2060691;69;20588;-80
2024/01/02 08:49:20;;;;;;;9.73;5.22;;;;;;;2.72;65.41;92001.91;2061470;69;20149;-82
2024/01/02 08:51:46;;;;;;;7.60;4.35;;;;;;;2.83;64.81;91995.09;2061473;69;20211;-85
2024/01/02 08:54:11;;;;;;;19.77;9.43;;;;;;;2.76;64.01;91985.56;2061512;69;20227;-83
2024/01/02 08:56:37;;;;;;;9.80;5.38;;;;;;;2.79;64.58;91984.41;2061093;69;20146;-87
2024/01/02 08:59:03;;;;;;;8.30;4.32;;;;;;;2.84;64.41;91985.47;2061511;69;20153;-88
2024/01/02 09:01:28;;;;;;;8.38;4.32;;;;;;;2.87;63.95;91986.31;2061681;69;20133;-77
2024/01/02 09:03:54;;;;;;;8.93;2.75;;;;;;;2.68;60.32;91990.47;2062083;69;20525;-88
2024/01/02 09:06:19;;;;;;;6.53;3.40;;;;;;;2.95;61.94;91993.25;2061742;69;20170;-84
2024/01/02 09:08:46;;;;;;;6.50;2.55;;;;;;;3.09;60.81;91973.41;2062154;69;20481;-82
2024/01/02 09:11:13;;;;;;;4.13;2.50;;;;;;;3.18;61.46;91987.34;2061987;69;20169;-82
2024/01/02 09:13:39;;;;;;;35.00;11.40;;;;;;;3.02;61.46;91981.28;2061984;69;20157;-80
2024/01/02 09:16:06;;;;;;;49.45;18.23;;;;;;;2.96;61.23;91974.50;2061621;69;20509;-83
2024/01/02 09:18:34;;;;;;;9.32;4.20;;;;;;;3.22;59.86;91981.34;2061726;69;20180;-81
2024/01/02 09:20:59;;;;;;;6.22;2.28;;;;;;;3.18;57.29;91990.13;2061687;69;20173;-82
2024/01/02 09:23:25;;;;;;;4.97;2.10;;;;;;;3.00;57.67;92011.72;2058588;69;20140;-82
2024/01/02 09:25:57;;;;;;;4.75;2.58;;;;;;;3.25;59.07;92003.19;2061479;69;20153;-79
2024/01/02 09:28:22;;;;;;;4.72;2.40;;;;;;;3.36;59.05;92004.66;2058659;69;20180;-78
2024/01/02 09:30:48;;;;;;;3.45;1.98;;;;;;;3.42;58.76;92015.53;2061886;69;20169;-82
2024/01/02 09:33:14;;;;;;;10.68;4.03;;;;;;;3.45;59.16;92023.44;2061554;69;20683;-79
2024/01/02 09:35:41;;;;;;;9.88;5.00;;;;;;;3.26;61.25;92001.88;2055354;69;20157;-79
2024/01/02 09:38:07;;;;;;;8.75;4.15;;;;;;;3.35;60.91;92008.03;2058536;69;20154;-80
2024/01/02 09:40:57;;;;;;;10.77;4.43;;;;;;;3.48;61.22;91991.69;2061803;69;20157;-83
2024/01/02 09:43:43;;;;;;;12.40;4.43;;;;;;;3.74;61.42;91981.03;2062065;69;20173;-79
2024/01/02 09:46:45;;;;;;;13.05;4.80;;;;;;;3.80;61.55;91982.22;2061529;69;20188;-79
2024/01/02 09:49:26;;;;;;;14.10;6.70;;;;;;;3.91;61.43;91982.94;2061668;69;20625;-82
2024/01/02 09:52:23;;;;;;;7.28;3.72;;;;;;;3.89;60.87;91974.44;2061719;69;20173;-80
2024/01/02 09:55:13;;;;;;;5.45;3.08;;;;;;;4.12;59.75;91991.44;2061830;69;20502;-81
2024/01/02 09:58:27;;;;;;;15.63;7.93;;;;;;;4.14;60.65;91980.47;2060343;69;20145;-81
2024/01/02 10:01:35;;;;;;;7.65;3.95;;;;;;;4.17;59.06;91976.50;2050592;70;20189;-83
2024/01/02 10:04:32;;;;;;;4.13;2.10;;;;;;;4.15;57.40;91968.00;2058634;69;20613;-81
2024/01/02 10:07:29;;;;;;;5.35;2.85;;;;;;;4.35;58.07;91965.91;2060848;69;20168;-84
2024/01/02 10:10:24;;;;;;;8.07;3.58;;;;;;;4.48;58.90;91953.59;2061795;69;20620;-79
2024/01/02 10:13:18;;;;;;;7.18;3.47;;;;;;;4.48;57.89;91953.59;2057735;69;20162;-80
2024/01/02 10:16:32;;;;;;;9.88;3.15;;;;;;;4.67;57.66;91945.16;2059526;69;20141;-81
2024/01/02 10:19:46;;;;;;;6.70;3.35;;;;;;;4.97;56.74;91934.66;2057336;69;20246;-85
2024/01/02 10:22:26;;;;;;;22.65;4.72;;;;;;;4.40;59.89;91939.81;2056707;69;20152;-84
2024/01/02 10:25:10;;;;;;;10.93;4.82;;;;;;;3.79;59.21;91941.03;2059175;69;20148;-85
2024/01/02 10:27:45;;;;;;;11.93;4.72;;;;;;;4.53;59.99;91930.97;2059208;69;20157;-81
2024/01/02 10:30:16;;;;;;;8.18;4.60;;;;;;;4.52;59.84;91935.09;2061870;69;20524;-85
2024/01/02 10:32:48;;;;;;;13.05;5.22;;;;;;;4.98;59.16;91931.28;2058401;69;20208;-85
2024/01/02 10:35:29;;;;;;;11.05;4.78;;;;;;;5.09;58.84;91918.78;2057967;69;20585;-84
2024/01/02 10:38:09;;;;;;;13.82;5.00;;;;;;;5.05;58.91;91901.75;2061804;69;20128;-89
2024/01/02 10:40:58;;;;;;;8.25;4.50;;;;;;;5.40;59.03;91892.88;2061847;69;20193;-85
2024/01/02 10:43:32;;;;;;;13.38;4.72;;;;;;;5.55;58.93;91892.50;2061739;69;20153;-84
2024/01/02 10:46:35;;;;;;;8.82;4.68;;;;;;;5.58;58.53;91892.03;2061065;69;20149;-87
2024/01/02 10:49:27;;;;;;;8.90;4.07;;;;;;;5.68;59.04;91885.63;2060730;69;20161;-82
2024/01/02 10:52:13;;;;;;;10.23;4.85;;;;;;;5.72;57.16;91888.69;2057534;69;20151;-83
2024/01/02 10:55:04;;;;;;;9.57;4.15;;;;;;;5.44;56.73;91885.50;2061195;69;20223;-87
2024/01/02 10:57:48;;;;;;;26.10;11.45;;;;;;;5.15;60.03;91893.34;2061295;69;20157;-87
2024/01/02 11:00:22;;;;;;;20.77;10.13;;;;;;;5.69;58.81;91881.53;2061508;69;20152;-92
2024/01/02 11:02:59;;;;;;;19.52;8.10;;;;;;;5.99;58.79;91888.38;2062650;69;20141;-83
2024/01/02 11:05:41;;;;;;;11.63;6.22;;;;;;;6.25;58.62;91883.72;2069304;69;20196;-85
2024/01/02 11:08:56;;;;;;;13.88;5.43;;;;;;;6.27;58.27;91867.81;2064257;69;20189;-86
2024/01/02 11:11:22;;;;;;;13.35;7.20;;;;;;;6.73;57.08;91866.44;2059439;69;20651;-79
2024/01/02 11:13:50;;;;;;;19.13;8.10;;;;;;;6.89;56.69;91855.53;2063512;69;20138;-79
2024/01/02 11:16:19;;;;;;;22.42;7.50;;;;;;;6.46;56.34;91866.91;2063285;69;20233;-80
2024/01/02 11:18:49;;;;;;;19.77;9.38;;;;;;;6.67;56.22;91857.69;2062079;69;20149;-79
2024/01/02 11:21:38;;;;;;;14.73;6.88;;;;;;;6.78;55.83;91854.19;2064607;69;20156;-79
2024/01/02 11:24:07;;;;;;;11.52;5.07;;;;;;;6.86;55.83;91846.25;2064414;69;20215;-78
2024/01/02 11:26:41;;;;;;;12.38;4.80;;;;;;;6.68;56.19;91850.03;2062375;69;20158;-79
2024/01/02 11:29:19;;;;;;;10.52;4.60;;;;;;;6.50;54.36;91849.63;2061356;69;20138;-79
2024/01/02 11:31:48;;;;;;;13.38;5.80;;;;;;;6.70;55.39;91841.78;2064958;69;20148;-79
2024/01/02 11:35:00;;;;;;;10.85;5.32;;;;;;;6.88;55.04;91826.81;2064383;69;20145;-87
2024/01/02 11:37:38;;;;;;;9.98;4.55;;;;;;;6.57;54.13;91827.03;2050959;70;20154;-83
2024/01/02 11:40:21;;;;;;;13.07;7.35;;;;;;;5.93;56.40;91809.78;2050985;70;20138;-87
2024/01/02 11:43:04;;;;;;;17.42;7.63;;;;;;;6.65;56.20;91812.81;2054122;70;20181;-83
2024/01/02 11:45:33;;;;;;;13.60;6.30;;;;;;;6.95;54.30;91785.19;2053637;70;20232;-84
2024/01/02 11:48:18;;;;;;;13.88;6.28;;;;;;;7.27;53.71;91789.16;2050308;70;20542;-78
2024/01/02 11:50:46;;;;;;;22.85;11.80;;;;;;;6.67;53.72;91795.44;2047741;70;20158;-81
2024/01/02 11:53:27;;;;;;;15.70;7.55;;;;;;;6.60;54.21;91794.34;2050300;70;20153;-83